sensor_id;sensor_type;location;lat;lon;timestamp;P1;durP1;ratioP1;P2;durP2;ratioP2
79468;SDS011;68936;52.526;13.326;2023-04-01T00:01:44;2.42;;;1.50;;
79468;SDS011;68936;52.526;13.326;2023-04-01T00:04:12;2.42;;;1.23;;
79468;SDS011;68936;52.526;13.326;2023-04-01T00:06:37;2.50;;;1.40;;
79468;SDS011;68936;52.526;13.326;2023-04-01T00:09:03;3.53;;;1.50;;
79468;SDS011;68936;52.526;13.326;2023-04-01T00:11:29;2.85;;;1.75;;
79468;SDS011;68936;52.526;13.326;2023-04-01T00:13:57;1.95;;;1.17;;
79468;SDS011;68936;52.526;13.326;2023-04-01T00:16:23;3.05;;;1.52;;
79468;SDS011;68936;52.526;13.326;2023-04-01T00:18:51;2.00;;;1.45;;
79468;SDS011;68936;52.526;13.326;2023-04-01T00:21:17;4.60;;;1.40;;
79468;SDS011;68936;52.526;13.326;2023-04-01T00:23:43;4.13;;;1.40;;
79468;SDS011;68936;52.526;13.326;2023-04-01T00:26:09;3.65;;;1.50;;
79468;SDS011;68936;52.526;13.326;2023-04-01T00:28:34;2.20;;;1.27;;
79468;SDS011;68936;52.526;13.326;2023-04-01T00:31:04;2.13;;;1.40;;
79468;SDS011;68936;52.526;13.326;2023-04-01T00:33:31;3.50;;;1.15;;
79468;SDS011;68936;52.526;13.326;2023-04-01T00:36:05;9.05;;;5.32;;
79468;SDS011;68936;52.526;13.326;2023-04-01T00:38:44;12.85;;;6.93;;
79468;SDS011;68936;52.526;13.326;2023-04-01T00:41:12;6.00;;;3.35;;
79468;SDS011;68936;52.526;13.326;2023-04-01T00:43:44;11.88;;;6.93;;
79468;SDS011;68936;52.526;13.326;2023-04-01T00:46:11;2.53;;;1.90;;
79468;SDS011;68936;52.526;13.326;2023-04-01T00:48:41;5.53;;;2.50;;
79468;SDS011;68936;52.526;13.326;2023-04-01T00:51:20;4.28;;;2.38;;
79468;SDS011;68936;52.526;13.326;2023-04-01T00:53:52;4.03;;;2.22;;
79468;SDS011;68936;52.526;13.326;2023-04-01T00:56:26;4.30;;;2.38;;
79468;SDS011;68936;52.526;13.326;2023-04-01T00:58:59;3.92;;;1.50;;
79468;SDS011;68936;52.526;13.326;2023-04-01T01:01:33;2.83;;;1.70;;
79468;SDS011;68936;52.526;13.326;2023-04-01T01:04:00;2.33;;;1.40;;
79468;SDS011;68936;52.526;13.326;2023-04-01T01:06:36;2.65;;;1.83;;
79468;SDS011;68936;52.526;13.326;2023-04-01T01:17:14;2.60;;;1.80;;
79468;SDS011;68936;52.526;13.326;2023-04-01T01:22:45;5.57;;;1.95;;
79468;SDS011;68936;52.526;13.326;2023-04-01T01:28:41;2.72;;;1.95;;
79468;SDS011;68936;52.526;13.326;2023-04-01T01:33:53;3.38;;;1.80;;
79468;SDS011;68936;52.526;13.326;2023-04-01T01:36:45;2.42;;;1.65;;
79468;SDS011;68936;52.526;13.326;2023-04-01T01:39:16;2.92;;;2.00;;
79468;SDS011;68936;52.526;13.326;2023-04-01T01:41:43;2.33;;;1.63;;
79468;SDS011;68936;52.526;13.326;2023-04-01T01:44:14;2.90;;;1.88;;
79468;SDS011;68936;52.526;13.326;2023-04-01T01:46:41;3.58;;;1.50;;
79468;SDS011;68936;52.526;13.326;2023-04-01T01:49:09;4.32;;;1.88;;
79468;SDS011;68936;52.526;13.326;2023-04-01T01:51:36;5.32;;;1.85;;
79468;SDS011;68936;52.526;13.326;2023-04-01T01:54:04;3.08;;;1.45;;
79468;SDS011;68936;52.526;13.326;2023-04-01T01:56:32;2.83;;;1.58;;
79468;SDS011;68936;52.526;13.326;2023-04-01T01:59:01;2.55;;;1.65;;
79468;SDS011;68936;52.526;13.326;2023-04-01T02:01:32;3.15;;;1.70;;
79468;SDS011;68936;52.526;13.326;2023-04-01T02:04:05;3.65;;;1.90;;
79468;SDS011;68936;52.526;13.326;2023-04-01T02:06:34;2.22;;;1.55;;
79468;SDS011;68936;52.526;13.326;2023-04-01T02:11:43;2.30;;;1.60;;
79468;SDS011;68936;52.526;13.326;2023-04-01T02:14:17;3.30;;;1.70;;
79468;SDS011;68936;52.526;13.326;2023-04-01T02:16:57;2.40;;;1.80;;
79468;SDS011;68936;52.526;13.326;2023-04-01T02:19:31;3.05;;;2.08;;
79468;SDS011;68936;52.526;13.326;2023-04-01T02:22:12;5.03;;;2.65;;
79468;SDS011;68936;52.526;13.326;2023-04-01T02:24:45;2.55;;;1.70;;
79468;SDS011;68936;52.526;13.326;2023-04-01T02:27:16;2.47;;;1.50;;
79468;SDS011;68936;52.526;13.326;2023-04-01T02:29:42;2.60;;;1.73;;
79468;SDS011;68936;52.526;13.326;2023-04-01T02:32:08;2.80;;;1.60;;
79468;SDS011;68936;52.526;13.326;2023-04-01T02:34:34;4.35;;;1.50;;
79468;SDS011;68936;52.526;13.326;2023-04-01T02:37:03;2.65;;;1.58;;
79468;SDS011;68936;52.526;13.326;2023-04-01T02:39:29;2.70;;;1.58;;
79468;SDS011;68936;52.526;13.326;2023-04-01T02:41:55;3.22;;;1.77;;
79468;SDS011;68936;52.526;13.326;2023-04-01T02:44:21;3.22;;;1.70;;
79468;SDS011;68936;52.526;13.326;2023-04-01T02:46:47;2.58;;;1.63;;
79468;SDS011;68936;52.526;13.326;2023-04-01T02:49:12;3.15;;;1.50;;
79468;SDS011;68936;52.526;13.326;2023-04-01T02:51:38;3.17;;;1.60;;
79468;SDS011;68936;52.526;13.326;2023-04-01T02:54:03;2.83;;;1.80;;
79468;SDS011;68936;52.526;13.326;2023-04-01T02:56:31;3.08;;;1.90;;
79468;SDS011;68936;52.526;13.326;2023-04-01T02:58:57;3.17;;;1.90;;
79468;SDS011;68936;52.526;13.326;2023-04-01T03:01:25;2.95;;;1.90;;
79468;SDS011;68936;52.526;13.326;2023-04-01T03:03:51;3.05;;;2.00;;
79468;SDS011;68936;52.526;13.326;2023-04-01T03:06:19;4.07;;;1.90;;
79468;SDS011;68936;52.526;13.326;2023-04-01T03:08:47;2.95;;;1.95;;
79468;SDS011;68936;52.526;13.326;2023-04-01T03:11:12;3.25;;;1.90;;
79468;SDS011;68936;52.526;13.326;2023-04-01T03:13:38;2.97;;;1.67;;
79468;SDS011;68936;52.526;13.326;2023-04-01T03:16:06;2.80;;;1.40;;
79468;SDS011;68936;52.526;13.326;2023-04-01T03:18:34;2.63;;;1.40;;
79468;SDS011;68936;52.526;13.326;2023-04-01T03:21:12;2.90;;;1.63;;
79468;SDS011;68936;52.526;13.326;2023-04-01T03:23:42;3.80;;;1.95;;
79468;SDS011;68936;52.526;13.326;2023-04-01T03:26:08;3.75;;;2.22;;
79468;SDS011;68936;52.526;13.326;2023-04-01T03:28:34;2.80;;;1.67;;
79468;SDS011;68936;52.526;13.326;2023-04-01T03:31:00;3.53;;;1.60;;
79468;SDS011;68936;52.526;13.326;2023-04-01T03:33:26;4.38;;;2.10;;
79468;SDS011;68936;52.526;13.326;2023-04-01T03:35:51;2.60;;;1.58;;
79468;SDS011;68936;52.526;13.326;2023-04-01T03:38:17;2.50;;;1.60;;
79468;SDS011;68936;52.526;13.326;2023-04-01T03:40:43;3.05;;;1.80;;
79468;SDS011;68936;52.526;13.326;2023-04-01T03:43:09;3.15;;;1.65;;
79468;SDS011;68936;52.526;13.326;2023-04-01T03:45:36;4.32;;;2.45;;
79468;SDS011;68936;52.526;13.326;2023-04-01T03:48:10;2.80;;;1.80;;
79468;SDS011;68936;52.526;13.326;2023-04-01T03:50:36;2.42;;;1.35;;
79468;SDS011;68936;52.526;13.326;2023-04-01T03:53:01;2.72;;;1.63;;
79468;SDS011;68936;52.526;13.326;2023-04-01T03:55:32;2.20;;;1.40;;
79468;SDS011;68936;52.526;13.326;2023-04-01T03:57:57;3.28;;;1.92;;
79468;SDS011;68936;52.526;13.326;2023-04-01T04:00:23;3.08;;;1.75;;
79468;SDS011;68936;52.526;13.326;2023-04-01T04:02:49;2.63;;;1.70;;
79468;SDS011;68936;52.526;13.326;2023-04-01T04:05:15;4.95;;;1.83;;
79468;SDS011;68936;52.526;13.326;2023-04-01T04:07:40;3.45;;;1.85;;
79468;SDS011;68936;52.526;13.326;2023-04-01T04:10:08;3.55;;;1.73;;
79468;SDS011;68936;52.526;13.326;2023-04-01T04:12:36;2.85;;;1.85;;
79468;SDS011;68936;52.526;13.326;2023-04-01T04:15:06;2.47;;;1.42;;
79468;SDS011;68936;52.526;13.326;2023-04-01T04:17:34;2.53;;;1.60;;
79468;SDS011;68936;52.526;13.326;2023-04-01T04:20:00;2.53;;;1.63;;
79468;SDS011;68936;52.526;13.326;2023-04-01T04:22:27;3.55;;;1.92;;
79468;SDS011;68936;52.526;13.326;2023-04-01T04:24:52;2.63;;;1.73;;
79468;SDS011;68936;52.526;13.326;2023-04-01T04:27:18;4.03;;;2.05;;
79468;SDS011;68936;52.526;13.326;2023-04-01T04:29:44;3.42;;;1.45;;
79468;SDS011;68936;52.526;13.326;2023-04-01T04:32:09;3.47;;;1.60;;
79468;SDS011;68936;52.526;13.326;2023-04-01T04:34:38;2.67;;;1.60;;
79468;SDS011;68936;52.526;13.326;2023-04-01T04:37:05;3.03;;;1.70;;
79468;SDS011;68936;52.526;13.326;2023-04-01T04:39:31;1.77;;;1.20;;
79468;SDS011;68936;52.526;13.326;2023-04-01T04:41:59;3.03;;;1.77;;
79468;SDS011;68936;52.526;13.326;2023-04-01T04:44:27;3.22;;;1.73;;
79468;SDS011;68936;52.526;13.326;2023-04-01T04:46:52;4.65;;;1.98;;
79468;SDS011;68936;52.526;13.326;2023-04-01T04:49:18;2.72;;;1.70;;
79468;SDS011;68936;52.526;13.326;2023-04-01T04:51:44;3.85;;;1.80;;
79468;SDS011;68936;52.526;13.326;2023-04-01T04:54:09;3.40;;;1.83;;
79468;SDS011;68936;52.526;13.326;2023-04-01T04:56:37;2.88;;;1.88;;
79468;SDS011;68936;52.526;13.326;2023-04-01T04:59:05;4.43;;;1.80;;
79468;SDS011;68936;52.526;13.326;2023-04-01T05:01:32;3.25;;;1.60;;
79468;SDS011;68936;52.526;13.326;2023-04-01T05:03:58;2.78;;;1.50;;
79468;SDS011;68936;52.526;13.326;2023-04-01T05:06:26;3.53;;;1.95;;
79468;SDS011;68936;52.526;13.326;2023-04-01T05:08:54;2.38;;;1.52;;
79468;SDS011;68936;52.526;13.326;2023-04-01T05:11:23;2.25;;;1.30;;
79468;SDS011;68936;52.526;13.326;2023-04-01T05:13:48;4.85;;;2.83;;
79468;SDS011;68936;52.526;13.326;2023-04-01T05:16:16;2.72;;;1.98;;
79468;SDS011;68936;52.526;13.326;2023-04-01T05:18:43;3.53;;;2.13;;
79468;SDS011;68936;52.526;13.326;2023-04-01T05:21:12;9.18;;;5.88;;
79468;SDS011;68936;52.526;13.326;2023-04-01T05:23:39;4.13;;;2.30;;
79468;SDS011;68936;52.526;13.326;2023-04-01T05:26:06;2.42;;;1.90;;
79468;SDS011;68936;52.526;13.326;2023-04-01T05:28:34;2.83;;;1.83;;
79468;SDS011;68936;52.526;13.326;2023-04-01T05:31:03;3.63;;;1.88;;
79468;SDS011;68936;52.526;13.326;2023-04-01T05:33:30;4.03;;;1.65;;
79468;SDS011;68936;52.526;13.326;2023-04-01T05:35:58;3.10;;;1.80;;
79468;SDS011;68936;52.526;13.326;2023-04-01T05:38:33;3.00;;;1.70;;
79468;SDS011;68936;52.526;13.326;2023-04-01T05:41:01;2.45;;;1.65;;
79468;SDS011;68936;52.526;13.326;2023-04-01T05:43:29;2.95;;;1.60;;
79468;SDS011;68936;52.526;13.326;2023-04-01T05:45:55;2.10;;;1.48;;
79468;SDS011;68936;52.526;13.326;2023-04-01T05:48:22;3.17;;;1.80;;
79468;SDS011;68936;52.526;13.326;2023-04-01T05:50:49;3.42;;;2.10;;
79468;SDS011;68936;52.526;13.326;2023-04-01T05:53:18;2.55;;;1.80;;
79468;SDS011;68936;52.526;13.326;2023-04-01T05:55:44;2.53;;;1.83;;
79468;SDS011;68936;52.526;13.326;2023-04-01T05:58:10;2.97;;;1.40;;
79468;SDS011;68936;52.526;13.326;2023-04-01T06:00:36;2.22;;;1.48;;
79468;SDS011;68936;52.526;13.326;2023-04-01T06:03:01;2.95;;;1.55;;
79468;SDS011;68936;52.526;13.326;2023-04-01T06:05:28;3.15;;;1.92;;
79468;SDS011;68936;52.526;13.326;2023-04-01T06:07:58;3.42;;;2.33;;
79468;SDS011;68936;52.526;13.326;2023-04-01T06:46:07;2.53;;;1.58;;
79468;SDS011;68936;52.526;13.326;2023-04-01T06:54:36;2.75;;;1.60;;
79468;SDS011;68936;52.526;13.326;2023-04-01T06:57:09;3.60;;;1.75;;
79468;SDS011;68936;52.526;13.326;2023-04-01T06:59:49;3.55;;;1.90;;
79468;SDS011;68936;52.526;13.326;2023-04-01T07:04:46;2.58;;;1.75;;
79468;SDS011;68936;52.526;13.326;2023-04-01T07:07:48;2.90;;;1.98;;
79468;SDS011;68936;52.526;13.326;2023-04-01T07:10:16;3.15;;;1.60;;
79468;SDS011;68936;52.526;13.326;2023-04-01T07:12:50;3.35;;;1.48;;
79468;SDS011;68936;52.526;13.326;2023-04-01T07:15:36;2.50;;;1.70;;
79468;SDS011;68936;52.526;13.326;2023-04-01T07:18:09;4.03;;;1.80;;
79468;SDS011;68936;52.526;13.326;2023-04-01T07:20:41;2.83;;;1.70;;
79468;SDS011;68936;52.526;13.326;2023-04-01T07:25:58;3.22;;;1.80;;
79468;SDS011;68936;52.526;13.326;2023-04-01T07:28:31;2.03;;;1.42;;
79468;SDS011;68936;52.526;13.326;2023-04-01T07:44:28;5.28;;;1.98;;
79468;SDS011;68936;52.526;13.326;2023-04-01T07:47:18;3.72;;;1.60;;
79468;SDS011;68936;52.526;13.326;2023-04-01T07:52:40;4.97;;;1.98;;
79468;SDS011;68936;52.526;13.326;2023-04-01T07:55:23;7.82;;;2.08;;
79468;SDS011;68936;52.526;13.326;2023-04-01T08:03:01;6.47;;;2.05;;
79468;SDS011;68936;52.526;13.326;2023-04-01T08:05:36;6.32;;;2.35;;
79468;SDS011;68936;52.526;13.326;2023-04-01T08:10:58;7.97;;;2.20;;
79468;SDS011;68936;52.526;13.326;2023-04-01T08:19:18;10.07;;;2.47;;
79468;SDS011;68936;52.526;13.326;2023-04-01T08:21:51;10.70;;;3.15;;
79468;SDS011;68936;52.526;13.326;2023-04-01T08:24:19;9.35;;;2.40;;
79468;SDS011;68936;52.526;13.326;2023-04-01T08:27:03;13.05;;;3.80;;
79468;SDS011;68936;52.526;13.326;2023-04-01T08:32:33;7.97;;;2.40;;
79468;SDS011;68936;52.526;13.326;2023-04-01T08:37:56;14.00;;;3.72;;
79468;SDS011;68936;52.526;13.326;2023-04-01T08:46:00;9.60;;;2.38;;
79468;SDS011;68936;52.526;13.326;2023-04-01T08:59:57;8.40;;;2.45;;
79468;SDS011;68936;52.526;13.326;2023-04-01T09:14:12;8.15;;;3.47;;
79468;SDS011;68936;52.526;13.326;2023-04-01T09:25:36;6.90;;;2.47;;
79468;SDS011;68936;52.526;13.326;2023-04-01T09:28:18;8.02;;;2.67;;
79468;SDS011;68936;52.526;13.326;2023-04-01T09:38:58;6.10;;;2.58;;
79468;SDS011;68936;52.526;13.326;2023-04-01T09:42:06;7.03;;;2.72;;
79468;SDS011;68936;52.526;13.326;2023-04-01T09:47:42;5.28;;;2.95;;
79468;SDS011;68936;52.526;13.326;2023-04-01T09:50:35;5.15;;;2.08;;
79468;SDS011;68936;52.526;13.326;2023-04-01T09:56:08;7.97;;;3.20;;
79468;SDS011;68936;52.526;13.326;2023-04-01T10:10:18;5.68;;;2.20;;
79468;SDS011;68936;52.526;13.326;2023-04-01T10:21:25;5.60;;;3.05;;
79468;SDS011;68936;52.526;13.326;2023-04-01T11:24:54;5.07;;;3.75;;
79468;SDS011;68936;52.526;13.326;2023-04-01T11:30:18;6.78;;;3.20;;
79468;SDS011;68936;52.526;13.326;2023-04-01T11:32:54;4.57;;;2.95;;
79468;SDS011;68936;52.526;13.326;2023-04-01T12:01:19;7.53;;;3.25;;
79468;SDS011;68936;52.526;13.326;2023-04-01T12:12:22;4.30;;;3.08;;
79468;SDS011;68936;52.526;13.326;2023-04-01T13:28:30;5.85;;;4.03;;
79468;SDS011;68936;52.526;13.326;2023-04-01T13:31:26;5.28;;;4.00;;
79468;SDS011;68936;52.526;13.326;2023-04-01T13:42:31;6.50;;;4.45;;
79468;SDS011;68936;52.526;13.326;2023-04-01T13:45:13;5.45;;;3.85;;
79468;SDS011;68936;52.526;13.326;2023-04-01T13:56:04;5.75;;;3.92;;
79468;SDS011;68936;52.526;13.326;2023-04-01T14:04:44;5.13;;;3.78;;
79468;SDS011;68936;52.526;13.326;2023-04-01T14:10:28;6.38;;;3.53;;
79468;SDS011;68936;52.526;13.326;2023-04-01T14:20:40;7.90;;;4.68;;
79468;SDS011;68936;52.526;13.326;2023-04-01T14:23:15;5.95;;;3.97;;
79468;SDS011;68936;52.526;13.326;2023-04-01T14:29:49;8.57;;;4.40;;
79468;SDS011;68936;52.526;13.326;2023-04-01T14:32:02;5.70;;;3.22;;
79468;SDS011;68936;52.526;13.326;2023-04-01T14:40:27;5.05;;;3.72;;
79468;SDS011;68936;52.526;13.326;2023-04-01T14:50:50;4.75;;;3.55;;
79468;SDS011;68936;52.526;13.326;2023-04-01T14:53:26;5.80;;;4.10;;
79468;SDS011;68936;52.526;13.326;2023-04-01T14:56:01;6.32;;;4.35;;
79468;SDS011;68936;52.526;13.326;2023-04-01T15:01:26;5.53;;;3.80;;
79468;SDS011;68936;52.526;13.326;2023-04-01T15:15:16;4.65;;;3.80;;
79468;SDS011;68936;52.526;13.326;2023-04-01T15:26:50;6.10;;;4.00;;
79468;SDS011;68936;52.526;13.326;2023-04-01T15:32:22;6.10;;;4.63;;
79468;SDS011;68936;52.526;13.326;2023-04-01T15:49:12;5.65;;;4.35;;
79468;SDS011;68936;52.526;13.326;2023-04-01T15:51:58;5.40;;;4.25;;
79468;SDS011;68936;52.526;13.326;2023-04-01T16:05:42;6.85;;;4.68;;
79468;SDS011;68936;52.526;13.326;2023-04-01T16:24:38;8.70;;;4.25;;
79468;SDS011;68936;52.526;13.326;2023-04-01T16:29:49;14.23;;;4.35;;
79468;SDS011;68936;52.526;13.326;2023-04-01T16:32:19;9.35;;;4.53;;
79468;SDS011;68936;52.526;13.326;2023-04-01T16:34:54;13.13;;;5.18;;
79468;SDS011;68936;52.526;13.326;2023-04-01T16:37:29;15.38;;;4.35;;
79468;SDS011;68936;52.526;13.326;2023-04-01T16:40:03;7.03;;;3.50;;
79468;SDS011;68936;52.526;13.326;2023-04-01T16:47:50;8.60;;;6.00;;
79468;SDS011;68936;52.526;13.326;2023-04-01T16:50:25;13.85;;;6.75;;
79468;SDS011;68936;52.526;13.326;2023-04-01T16:58:57;12.32;;;5.95;;
79468;SDS011;68936;52.526;13.326;2023-04-01T17:03:45;12.32;;;4.90;;
79468;SDS011;68936;52.526;13.326;2023-04-01T17:09:19;10.27;;;4.65;;
79468;SDS011;68936;52.526;13.326;2023-04-01T17:17:14;21.13;;;10.77;;
79468;SDS011;68936;52.526;13.326;2023-04-01T17:22:25;13.52;;;7.43;;
79468;SDS011;68936;52.526;13.326;2023-04-01T17:27:38;21.88;;;10.32;;
79468;SDS011;68936;52.526;13.326;2023-04-01T17:45:55;17.58;;;9.68;;
79468;SDS011;68936;52.526;13.326;2023-04-01T17:58:48;23.88;;;11.32;;
79468;SDS011;68936;52.526;13.326;2023-04-01T18:16:55;15.77;;;7.82;;
79468;SDS011;68936;52.526;13.326;2023-04-01T18:22:09;10.23;;;6.75;;
79468;SDS011;68936;52.526;13.326;2023-04-01T18:29:36;19.90;;;10.48;;
79468;SDS011;68936;52.526;13.326;2023-04-01T18:35:12;23.48;;;12.98;;
79468;SDS011;68936;52.526;13.326;2023-04-01T18:41:10;42.97;;;24.33;;
79468;SDS011;68936;52.526;13.326;2023-04-01T18:52:54;72.30;;;33.72;;
79468;SDS011;68936;52.526;13.326;2023-04-01T19:00:33;84.13;;;35.70;;
79468;SDS011;68936;52.526;13.326;2023-04-01T19:03:05;74.47;;;35.30;;
79468;SDS011;68936;52.526;13.326;2023-04-01T19:05:34;87.13;;;38.25;;
79468;SDS011;68936;52.526;13.326;2023-04-01T19:52:54;51.10;;;23.20;;
79468;SDS011;68936;52.526;13.326;2023-04-01T19:58:05;41.13;;;19.65;;
79468;SDS011;68936;52.526;13.326;2023-04-01T20:00:47;34.00;;;17.13;;
79468;SDS011;68936;52.526;13.326;2023-04-01T20:05:56;40.30;;;17.50;;
79468;SDS011;68936;52.526;13.326;2023-04-01T20:15:58;46.70;;;19.17;;
79468;SDS011;68936;52.526;13.326;2023-04-01T20:21:02;44.15;;;21.45;;
79468;SDS011;68936;52.526;13.326;2023-04-01T20:26:04;41.40;;;21.35;;
79468;SDS011;68936;52.526;13.326;2023-04-01T20:29:01;48.47;;;21.75;;
79468;SDS011;68936;52.526;13.326;2023-04-01T20:31:25;37.85;;;18.45;;
79468;SDS011;68936;52.526;13.326;2023-04-01T20:44:11;34.40;;;17.00;;
79468;SDS011;68936;52.526;13.326;2023-04-01T20:46:50;38.70;;;17.92;;
79468;SDS011;68936;52.526;13.326;2023-04-01T20:54:42;38.03;;;17.80;;
79468;SDS011;68936;52.526;13.326;2023-04-01T20:57:21;35.90;;;17.63;;
79468;SDS011;68936;52.526;13.326;2023-04-01T20:59:59;36.10;;;18.35;;
79468;SDS011;68936;52.526;13.326;2023-04-01T21:07:52;34.17;;;16.20;;
79468;SDS011;68936;52.526;13.326;2023-04-01T21:10:34;41.67;;;19.73;;
79468;SDS011;68936;52.526;13.326;2023-04-01T21:13:11;39.28;;;19.02;;
79468;SDS011;68936;52.526;13.326;2023-04-01T21:20:45;35.00;;;18.08;;
79468;SDS011;68936;52.526;13.326;2023-04-01T21:36:21;39.55;;;18.77;;
79468;SDS011;68936;52.526;13.326;2023-04-01T21:39:27;35.13;;;17.10;;
79468;SDS011;68936;52.526;13.326;2023-04-01T21:44:19;31.17;;;16.10;;
79468;SDS011;68936;52.526;13.326;2023-04-01T21:57:21;27.25;;;13.77;;
79468;SDS011;68936;52.526;13.326;2023-04-01T22:00:07;26.67;;;14.70;;
79468;SDS011;68936;52.526;13.326;2023-04-01T22:07:57;24.33;;;13.27;;
79468;SDS011;68936;52.526;13.326;2023-04-01T22:10:32;35.22;;;16.63;;
79468;SDS011;68936;52.526;13.326;2023-04-01T22:13:07;27.35;;;14.88;;
79468;SDS011;68936;52.526;13.326;2023-04-01T22:15:51;28.38;;;15.20;;
79468;SDS011;68936;52.526;13.326;2023-04-01T22:18:25;29.20;;;14.70;;
79468;SDS011;68936;52.526;13.326;2023-04-01T22:21:03;32.83;;;14.75;;
79468;SDS011;68936;52.526;13.326;2023-04-01T22:23:36;23.42;;;12.32;;
79468;SDS011;68936;52.526;13.326;2023-04-01T22:26:16;25.83;;;13.15;;
79468;SDS011;68936;52.526;13.326;2023-04-01T22:31:12;25.85;;;13.52;;
79468;SDS011;68936;52.526;13.326;2023-04-01T22:36:20;24.75;;;12.25;;
79468;SDS011;68936;52.526;13.326;2023-04-01T22:43:51;25.60;;;13.02;;
79468;SDS011;68936;52.526;13.326;2023-04-01T22:51:50;24.55;;;13.88;;
79468;SDS011;68936;52.526;13.326;2023-04-01T22:56:59;29.90;;;15.15;;
79468;SDS011;68936;52.526;13.326;2023-04-01T22:59:30;29.23;;;14.43;;
79468;SDS011;68936;52.526;13.326;2023-04-01T23:02:03;26.35;;;14.50;;
79468;SDS011;68936;52.526;13.326;2023-04-01T23:04:37;20.65;;;12.63;;
79468;SDS011;68936;52.526;13.326;2023-04-01T23:07:05;27.10;;;13.13;;
79468;SDS011;68936;52.526;13.326;2023-04-01T23:09:41;27.13;;;15.07;;
79468;SDS011;68936;52.526;13.326;2023-04-01T23:12:11;27.88;;;15.35;;
79468;SDS011;68936;52.526;13.326;2023-04-01T23:33:14;28.95;;;15.63;;
79468;SDS011;68936;52.526;13.326;2023-04-01T23:38:18;23.30;;;12.00;;
79468;SDS011;68936;52.526;13.326;2023-04-01T23:40:46;21.73;;;11.73;;
79468;SDS011;68936;52.526;13.326;2023-04-01T23:43:33;27.55;;;14.15;;
79468;SDS011;68936;52.526;13.326;2023-04-01T23:46:01;26.55;;;12.25;;
79468;SDS011;68936;52.526;13.326;2023-04-01T23:48:32;32.78;;;17.60;;
79468;SDS011;68936;52.526;13.326;2023-04-01T23:50:58;24.92;;;13.30;;
79468;SDS011;68936;52.526;13.326;2023-04-01T23:53:25;34.10;;;18.77;;
79468;SDS011;68936;52.526;13.326;2023-04-01T23:55:53;30.25;;;16.85;;
79468;SDS011;68936;52.526;13.326;2023-04-01T23:58:38;20.42;;;10.93;;
